Time;durP1;ratioP1;P1;durP2;ratioP2;P2;SDS_P1;SDS_P2;PMS_P1;PMS_P2;Temp;Humidity;BMP_temperature;BMP_pressure;BME280_temperature;BME280_humidity;BME280_pressure;Samples;Min_cycle;Max_cycle;Signal;HPM_P1;HPM_P2
2022/10/11 00:02:23;;;;;;;9.60;5.43;;;;;;;;;;5055490;28;20025;-81
2022/10/11 00:04:49;;;;;;;11.20;5.57;;;;;;;;;;5037873;28;20035;-80
2022/10/11 00:07:16;;;;;;;10.02;5.72;;;;;;;;;;5038261;28;20612;-81
2022/10/11 00:09:42;;;;;;;10.75;5.45;;;;;;;;;;5044851;28;20167;-82
2022/10/11 00:12:09;;;;;;;9.43;5.15;;;;;;;;;;5053650;28;20017;-83
2022/10/11 00:14:35;;;;;;;8.23;4.85;;;;;;;;;;5055584;28;20142;-82
2022/10/11 00:17:01;;;;;;;8.20;5.45;;;;;;;;;;5055001;28;20028;-82
2022/10/11 00:19:27;;;;;;;7.22;4.80;;;;;;;;;;5053725;28;20182;-82
2022/10/11 00:21:53;;;;;;;9.98;5.80;;;;;;;;;;5055248;28;20510;-82
2022/10/11 00:24:19;;;;;;;9.02;5.25;;;;;;;;;;5047560;28;20068;-82
2022/10/11 00:26:45;;;;;;;9.32;5.53;;;;;;;;;;5052661;28;20494;-82
2022/10/11 00:29:11;;;;;;;10.32;5.68;;;;;;;;;;5053518;28;20371;-82
2022/10/11 00:31:38;;;;;;;8.63;5.28;;;;;;;;;;5055029;28;20475;-81
2022/10/11 00:34:04;;;;;;;11.55;5.93;;;;;;;;;;5054501;28;20766;-81
2022/10/11 00:36:30;;;;;;;10.23;5.05;;;;;;;;;;5036475;28;20540;-80
2022/10/11 00:38:56;;;;;;;7.78;5.10;;;;;;;;;;5036833;28;20434;-81
2022/10/11 00:41:22;;;;;;;9.75;5.15;;;;;;;;;;5054434;28;20021;-81
2022/10/11 00:43:48;;;;;;;8.52;5.43;;;;;;;;;;5043200;28;20496;-81
2022/10/11 00:46:17;;;;;;;10.38;5.25;;;;;;;;;;5046574;28;20122;-81
2022/10/11 00:48:48;;;;;;;9.90;5.57;;;;;;;;;;5054471;28;20025;-81
2022/10/11 00:51:20;;;;;;;8.75;5.50;;;;;;;;;;5054700;28;20033;-81
2022/10/11 00:53:47;;;;;;;8.93;4.93;;;;;;;;;;5052708;28;20021;-83
2022/10/11 00:56:20;;;;;;;9.32;5.30;;;;;;;;;;5054085;28;20061;-82
2022/10/11 00:58:46;;;;;;;10.15;5.30;;;;;;;;;;5053364;28;20029;-83
2022/10/11 01:01:12;;;;;;;9.30;5.45;;;;;;;;;;5053621;28;20083;-82
2022/10/11 01:03:39;;;;;;;8.10;4.97;;;;;;;;;;5052713;28;20021;-81
2022/10/11 01:06:05;;;;;;;9.55;5.13;;;;;;;;;;5053369;28;20088;-81
2022/10/11 01:08:32;;;;;;;8.32;5.30;;;;;;;;;;5051960;28;20074;-82
2022/10/11 01:10:58;;;;;;;9.30;5.18;;;;;;;;;;5047248;28;20018;-81
2022/10/11 01:13:44;;;;;;;8.32;4.88;;;;;;;;;;5041209;28;20108;-81
2022/10/11 01:16:16;;;;;;;9.68;5.35;;;;;;;;;;5015655;28;20032;-82
2022/10/11 01:18:45;;;;;;;9.07;5.05;;;;;;;;;;5054061;28;20023;-81
2022/10/11 01:21:30;;;;;;;9.15;5.78;;;;;;;;;;5053199;28;20112;-81
2022/10/11 01:24:06;;;;;;;9.50;5.07;;;;;;;;;;5067537;28;20029;-82
2022/10/11 01:26:50;;;;;;;8.05;4.93;;;;;;;;;;5051233;28;20040;-82
2022/10/11 01:29:28;;;;;;;7.88;4.82;;;;;;;;;;5049957;28;20450;-82
2022/10/11 01:32:10;;;;;;;7.78;5.25;;;;;;;;;;5075475;28;20081;-82
2022/10/11 01:34:57;;;;;;;9.77;5.60;;;;;;;;;;5072044;28;20040;-82
2022/10/11 01:37:35;;;;;;;10.13;5.18;;;;;;;;;;5072451;28;20029;-82
2022/10/11 01:40:01;;;;;;;11.38;6.10;;;;;;;;;;5071150;28;20060;-82
2022/10/11 01:42:28;;;;;;;8.88;5.43;;;;;;;;;;5068491;28;20051;-82
2022/10/11 01:44:54;;;;;;;10.75;5.90;;;;;;;;;;5069448;28;20352;-82
2022/10/11 01:47:21;;;;;;;9.18;5.20;;;;;;;;;;5071211;28;20040;-82
2022/10/11 01:49:52;;;;;;;9.13;5.22;;;;;;;;;;5064790;28;20036;-83
2022/10/11 01:52:18;;;;;;;9.52;5.82;;;;;;;;;;5059619;28;20083;-83
2022/10/11 01:55:03;;;;;;;10.10;6.13;;;;;;;;;;5060342;28;20029;-83
2022/10/11 01:57:29;;;;;;;9.95;5.55;;;;;;;;;;5057609;28;20032;-83
2022/10/11 01:59:58;;;;;;;11.63;5.50;;;;;;;;;;5060269;28;20029;-84
2022/10/11 02:02:24;;;;;;;9.13;5.45;;;;;;;;;;5056220;28;20039;-84
2022/10/11 02:04:57;;;;;;;9.98;6.13;;;;;;;;;;5051082;28;20468;-84
2022/10/11 02:07:23;;;;;;;9.93;5.97;;;;;;;;;;5037320;28;20021;-84
2022/10/11 02:10:12;;;;;;;9.52;5.40;;;;;;;;;;5052471;28;20059;-84
2022/10/11 02:12:44;;;;;;;8.15;5.30;;;;;;;;;;5044524;28;20021;-84
2022/10/11 02:15:12;;;;;;;8.02;5.15;;;;;;;;;;5039861;28;20032;-84
2022/10/11 02:17:44;;;;;;;9.27;5.63;;;;;;;;;;5058347;28;20108;-84
2022/10/11 02:20:13;;;;;;;10.20;5.82;;;;;;;;;;5056610;28;20029;-84
2022/10/11 02:22:41;;;;;;;10.18;5.68;;;;;;;;;;5057156;28;20092;-84
2022/10/11 02:25:09;;;;;;;9.38;5.70;;;;;;;;;;5056007;28;20498;-83
2022/10/11 02:27:37;;;;;;;10.27;5.75;;;;;;;;;;5056001;28;20727;-84
2022/10/11 02:30:06;;;;;;;9.30;5.55;;;;;;;;;;5057281;28;20044;-84
2022/10/11 02:32:32;;;;;;;10.75;6.30;;;;;;;;;;5044494;28;20674;-84
2022/10/11 02:35:01;;;;;;;9.40;5.70;;;;;;;;;;5060370;28;20029;-83
2022/10/11 02:37:45;;;;;;;10.32;6.05;;;;;;;;;;5061418;28;20022;-83
2022/10/11 02:40:15;;;;;;;9.93;6.38;;;;;;;;;;5042883;28;20571;-83
2022/10/11 02:42:48;;;;;;;9.65;6.30;;;;;;;;;;5055471;28;20499;-83
2022/10/11 02:45:19;;;;;;;11.27;6.25;;;;;;;;;;5061322;28;20055;-83
2022/10/11 02:47:46;;;;;;;9.90;6.47;;;;;;;;;;5060081;28;20024;-83
2022/10/11 02:50:13;;;;;;;11.50;7.25;;;;;;;;;;5059709;28;20025;-82
2022/10/11 02:52:39;;;;;;;13.25;7.45;;;;;;;;;;5047037;28;20078;-83
2022/10/11 02:55:06;;;;;;;12.55;7.85;;;;;;;;;;5051024;28;20025;-83
2022/10/11 02:57:32;;;;;;;13.73;8.75;;;;;;;;;;5047945;28;20029;-83
2022/10/11 02:59:58;;;;;;;11.57;7.75;;;;;;;;;;5060020;28;20390;-83
2022/10/11 03:02:24;;;;;;;13.13;9.40;;;;;;;;;;5050045;28;20061;-83
2022/10/11 03:04:51;;;;;;;13.80;9.60;;;;;;;;;;5059697;28;20115;-83
2022/10/11 03:07:17;;;;;;;14.57;8.65;;;;;;;;;;5059770;28;20017;-83
2022/10/11 03:09:44;;;;;;;14.27;9.68;;;;;;;;;;5060859;28;20403;-84
2022/10/11 03:12:10;;;;;;;14.15;9.05;;;;;;;;;;5056918;28;20071;-84
2022/10/11 03:14:36;;;;;;;14.10;9.57;;;;;;;;;;5058743;28;20032;-84
2022/10/11 03:17:02;;;;;;;15.98;9.63;;;;;;;;;;5058255;28;20131;-83
2022/10/11 03:19:28;;;;;;;13.82;9.20;;;;;;;;;;5058519;28;20033;-84
2022/10/11 03:21:54;;;;;;;14.35;9.68;;;;;;;;;;5057390;28;20079;-82
2022/10/11 03:24:20;;;;;;;15.65;10.15;;;;;;;;;;5058195;28;20569;-82
2022/10/11 03:26:46;;;;;;;15.13;10.15;;;;;;;;;;5057018;28;20142;-82
2022/10/11 03:29:12;;;;;;;14.10;9.50;;;;;;;;;;5058993;28;20017;-83
2022/10/11 03:31:38;;;;;;;14.73;9.82;;;;;;;;;;5058157;28;20032;-83
2022/10/11 03:34:04;;;;;;;16.67;10.20;;;;;;;;;;5056992;28;20106;-83
2022/10/11 03:36:30;;;;;;;16.85;10.77;;;;;;;;;;5058222;28;20107;-83
2022/10/11 03:38:56;;;;;;;15.43;10.13;;;;;;;;;;5057066;28;20063;-83
2022/10/11 03:41:22;;;;;;;17.65;10.35;;;;;;;;;;5055588;28;20044;-83
2022/10/11 03:43:48;;;;;;;16.98;11.48;;;;;;;;;;5053258;28;20456;-83
2022/10/11 03:46:14;;;;;;;16.02;10.90;;;;;;;;;;5056629;28;20040;-83
2022/10/11 03:48:40;;;;;;;18.73;12.63;;;;;;;;;;5052817;28;20048;-83
2022/10/11 03:51:06;;;;;;;18.08;12.45;;;;;;;;;;5054020;28;20033;-83
2022/10/11 03:53:32;;;;;;;20.88;13.85;;;;;;;;;;5056318;28;20017;-82
2022/10/11 03:55:58;;;;;;;21.10;12.38;;;;;;;;;;5055271;28;20110;-82
2022/10/11 03:58:24;;;;;;;19.45;13.35;;;;;;;;;;5053278;28;20021;-82
2022/10/11 04:00:51;;;;;;;18.88;12.52;;;;;;;;;;5055997;28;20025;-82
2022/10/11 04:03:17;;;;;;;17.90;12.07;;;;;;;;;;5056312;28;20414;-81
2022/10/11 04:05:43;;;;;;;19.95;12.38;;;;;;;;;;5057752;28;20025;-81
2022/10/11 04:08:09;;;;;;;20.13;12.55;;;;;;;;;;5055826;28;20116;-81
2022/10/11 04:10:35;;;;;;;19.38;11.93;;;;;;;;;;5056464;28;20059;-82
2022/10/11 04:13:01;;;;;;;17.42;11.57;;;;;;;;;;5056946;28;20252;-82
2022/10/11 04:15:27;;;;;;;17.45;11.40;;;;;;;;;;5045253;28;20431;-83
2022/10/11 04:17:53;;;;;;;17.33;11.45;;;;;;;;;;5055075;28;20033;-83
2022/10/11 04:20:19;;;;;;;17.98;11.80;;;;;;;;;;5053056;28;20067;-83
2022/10/11 04:22:45;;;;;;;17.90;12.52;;;;;;;;;;5049532;28;20063;-83
2022/10/11 04:25:11;;;;;;;17.40;11.07;;;;;;;;;;5039317;28;20395;-83
2022/10/11 04:27:37;;;;;;;17.33;11.20;;;;;;;;;;5040504;28;20249;-83
2022/10/11 04:30:03;;;;;;;19.17;11.65;;;;;;;;;;5047271;28;20032;-82
2022/10/11 04:32:29;;;;;;;15.60;10.52;;;;;;;;;;5055787;28;20487;-83
2022/10/11 04:34:56;;;;;;;16.13;10.68;;;;;;;;;;5055720;28;20033;-82
2022/10/11 04:37:22;;;;;;;17.10;11.07;;;;;;;;;;5057740;28;20056;-82
2022/10/11 04:39:48;;;;;;;17.30;11.95;;;;;;;;;;5058649;28;20044;-82
2022/10/11 04:42:14;;;;;;;19.17;12.52;;;;;;;;;;5056731;28;20556;-81
2022/10/11 04:44:40;;;;;;;19.13;11.73;;;;;;;;;;5052285;28;20549;-81
2022/10/11 04:47:06;;;;;;;18.13;12.25;;;;;;;;;;5055363;28;20021;-81
2022/10/11 04:49:32;;;;;;;17.17;11.90;;;;;;;;;;5055285;28;20110;-80
2022/10/11 04:51:58;;;;;;;19.75;13.40;;;;;;;;;;5055655;28;20044;-81
2022/10/11 04:54:24;;;;;;;16.70;12.10;;;;;;;;;;5056203;28;20029;-81
2022/10/11 04:56:50;;;;;;;18.15;11.38;;;;;;;;;;5050719;28;20021;-81
2022/10/11 04:59:16;;;;;;;18.60;11.13;;;;;;;;;;5065413;28;20131;-81
2022/10/11 05:01:42;;;;;;;17.60;12.10;;;;;;;;;;5054343;28;20490;-81
2022/10/11 05:04:08;;;;;;;16.42;10.30;;;;;;;;;;5054923;28;20043;-81
2022/10/11 05:06:34;;;;;;;15.43;10.38;;;;;;;;;;5062628;28;20514;-81
2022/10/11 05:09:00;;;;;;;17.15;11.32;;;;;;;;;;5056766;28;20386;-81
2022/10/11 05:11:26;;;;;;;18.60;11.68;;;;;;;;;;5049077;28;20028;-81
2022/10/11 05:13:52;;;;;;;18.30;11.52;;;;;;;;;;5053457;28;20029;-81
2022/10/11 05:16:18;;;;;;;19.17;12.65;;;;;;;;;;5054653;28;20041;-81
2022/10/11 05:18:44;;;;;;;16.20;10.50;;;;;;;;;;5055650;28;20025;-81
2022/10/11 05:21:20;;;;;;;19.25;11.65;;;;;;;;;;5055752;28;20025;-80
2022/10/11 05:23:47;;;;;;;16.55;11.77;;;;;;;;;;5053393;28;20066;-80
2022/10/11 05:26:14;;;;;;;17.73;11.55;;;;;;;;;;5055149;28;20391;-80
2022/10/11 05:28:40;;;;;;;19.08;12.13;;;;;;;;;;5056392;28;20025;-80
2022/10/11 05:31:06;;;;;;;18.73;11.60;;;;;;;;;;5055835;28;20065;-81
2022/10/11 05:33:32;;;;;;;19.80;12.43;;;;;;;;;;5054263;28;20032;-80
2022/10/11 05:35:59;;;;;;;27.88;13.50;;;;;;;;;;5055780;28;20037;-80
2022/10/11 05:38:25;;;;;;;19.60;12.32;;;;;;;;;;5054783;28;20486;-81
2022/10/11 05:40:51;;;;;;;22.20;12.68;;;;;;;;;;5055995;28;20025;-81
2022/10/11 05:43:17;;;;;;;22.20;13.40;;;;;;;;;;5054328;28;20111;-81
2022/10/11 05:45:44;;;;;;;21.00;13.25;;;;;;;;;;5039438;28;20052;-80
2022/10/11 05:48:10;;;;;;;22.98;13.15;;;;;;;;;;5054973;28;20021;-80
2022/10/11 05:50:37;;;;;;;22.90;13.75;;;;;;;;;;5056223;28;20021;-81
2022/10/11 05:53:03;;;;;;;22.70;14.13;;;;;;;;;;5054335;28;20046;-81
2022/10/11 05:55:29;;;;;;;22.58;14.07;;;;;;;;;;5046088;28;20079;-81
2022/10/11 05:57:56;;;;;;;25.73;15.90;;;;;;;;;;5054310;28;20040;-81
2022/10/11 06:00:23;;;;;;;27.10;15.73;;;;;;;;;;5054600;28;20037;-81
2022/10/11 06:02:49;;;;;;;29.80;15.68;;;;;;;;;;5053149;28;20033;-81
2022/10/11 06:05:16;;;;;;;26.15;16.13;;;;;;;;;;5054820;28;20033;-80
2022/10/11 06:07:42;;;;;;;18.75;12.98;;;;;;;;;;5053658;28;20026;-80
2022/10/11 06:10:08;;;;;;;23.63;14.98;;;;;;;;;;5055315;28;20538;-80
2022/10/11 06:12:35;;;;;;;22.17;14.82;;;;;;;;;;5053507;28;20025;-80
2022/10/11 06:15:02;;;;;;;26.63;16.23;;;;;;;;;;5055366;28;20048;-80
2022/10/11 06:17:28;;;;;;;25.95;15.35;;;;;;;;;;5054739;28;20051;-80
2022/10/11 06:19:54;;;;;;;21.52;12.88;;;;;;;;;;5054283;28;20074;-81
2022/10/11 06:22:21;;;;;;;20.38;13.68;;;;;;;;;;5036259;28;20029;-80
2022/10/11 06:24:47;;;;;;;22.75;13.40;;;;;;;;;;5054211;28;20045;-81
2022/10/11 06:27:13;;;;;;;21.08;12.43;;;;;;;;;;5054243;28;20532;-81
2022/10/11 06:29:39;;;;;;;18.42;12.35;;;;;;;;;;5054848;28;20074;-80
2022/10/11 06:32:05;;;;;;;18.45;12.18;;;;;;;;;;5058415;28;20043;-81
2022/10/11 06:34:31;;;;;;;16.70;11.85;;;;;;;;;;5056273;28;20079;-81
2022/10/11 06:36:57;;;;;;;17.02;11.45;;;;;;;;;;5053835;28;20029;-82
2022/10/11 06:39:23;;;;;;;19.92;12.18;;;;;;;;;;5054777;28;20406;-81
2022/10/11 06:41:50;;;;;;;20.33;12.50;;;;;;;;;;5036629;28;20403;-81
2022/10/11 06:44:16;;;;;;;19.50;11.70;;;;;;;;;;5037019;28;20025;-80
2022/10/11 06:46:42;;;;;;;20.65;13.95;;;;;;;;;;5054841;28;20028;-81
2022/10/11 06:49:08;;;;;;;18.60;12.65;;;;;;;;;;5054567;28;20021;-81
2022/10/11 06:51:34;;;;;;;19.02;11.70;;;;;;;;;;5054205;28;20079;-81
2022/10/11 06:54:01;;;;;;;16.85;12.32;;;;;;;;;;5052906;28;20070;-81
2022/10/11 06:56:28;;;;;;;16.77;11.40;;;;;;;;;;5055366;28;20087;-81
2022/10/11 06:58:54;;;;;;;16.35;10.88;;;;;;;;;;5055301;28;20395;-82
2022/10/11 07:01:22;;;;;;;18.25;11.30;;;;;;;;;;5054421;28;20029;-83
2022/10/11 07:03:48;;;;;;;17.77;11.38;;;;;;;;;;5053315;28;20365;-84
2022/10/11 07:06:15;;;;;;;15.07;10.38;;;;;;;;;;5053821;28;20032;-82
2022/10/11 07:08:41;;;;;;;15.48;10.30;;;;;;;;;;5053989;28;20460;-82
2022/10/11 07:11:12;;;;;;;15.57;10.02;;;;;;;;;;5036436;28;20189;-83
2022/10/11 07:13:39;;;;;;;13.80;9.68;;;;;;;;;;5053869;28;20028;-83
2022/10/11 07:16:06;;;;;;;17.85;10.10;;;;;;;;;;5054131;28;20029;-83
2022/10/11 07:18:32;;;;;;;15.38;10.50;;;;;;;;;;5054539;28;20024;-83
2022/10/11 07:20:58;;;;;;;15.70;10.30;;;;;;;;;;5056379;28;20108;-85
2022/10/11 07:23:24;;;;;;;13.27;9.63;;;;;;;;;;5057094;28;20146;-82
2022/10/11 07:25:53;;;;;;;13.13;8.90;;;;;;;;;;5059317;28;20013;-83
2022/10/11 07:28:20;;;;;;;12.85;9.15;;;;;;;;;;5045100;28;20033;-84
2022/10/11 07:30:46;;;;;;;13.70;9.68;;;;;;;;;;5057738;28;20566;-85
2022/10/11 07:33:12;;;;;;;13.07;8.85;;;;;;;;;;5050944;28;20104;-83
2022/10/11 07:35:38;;;;;;;13.80;8.63;;;;;;;;;;5057683;28;20021;-82
2022/10/11 07:38:05;;;;;;;14.88;8.55;;;;;;;;;;5057756;28;20041;-83
2022/10/11 07:40:31;;;;;;;12.90;9.18;;;;;;;;;;5040850;28;20442;-84
2022/10/11 07:42:57;;;;;;;11.23;8.13;;;;;;;;;;5059706;28;20096;-83
2022/10/11 07:45:24;;;;;;;11.63;9.05;;;;;;;;;;5060941;28;20021;-85
2022/10/11 07:47:50;;;;;;;11.88;8.40;;;;;;;;;;5060683;28;20100;-85
2022/10/11 07:50:16;;;;;;;11.13;8.25;;;;;;;;;;5060291;28;20596;-85
2022/10/11 07:52:42;;;;;;;10.98;7.82;;;;;;;;;;5059322;28;20019;-86
2022/10/11 07:55:08;;;;;;;12.25;8.45;;;;;;;;;;5060185;28;20495;-84
2022/10/11 07:57:34;;;;;;;13.55;8.77;;;;;;;;;;5058995;28;20049;-85
2022/10/11 08:00:00;;;;;;;14.02;8.75;;;;;;;;;;5044314;28;20505;-84
2022/10/11 08:02:26;;;;;;;12.65;8.18;;;;;;;;;;5058609;28;20395;-86
2022/10/11 08:04:53;;;;;;;13.30;8.57;;;;;;;;;;5052149;28;20337;-84
2022/10/11 08:07:18;;;;;;;16.65;8.57;;;;;;;;;;5039009;28;20032;-86
2022/10/11 08:09:44;;;;;;;10.88;7.20;;;;;;;;;;5039497;28;20100;-84
2022/10/11 08:12:10;;;;;;;11.68;8.02;;;;;;;;;;5038083;28;20021;-85
2022/10/11 08:14:36;;;;;;;11.82;8.43;;;;;;;;;;5052960;28;20029;-85
2022/10/11 08:17:02;;;;;;;16.48;9.18;;;;;;;;;;5059036;28;20025;-83
2022/10/11 08:19:29;;;;;;;11.57;7.85;;;;;;;;;;5059355;28;20030;-84
2022/10/11 08:21:55;;;;;;;11.57;8.38;;;;;;;;;;5059073;28;20021;-84
2022/10/11 08:24:21;;;;;;;13.00;8.07;;;;;;;;;;5059391;28;20025;-85
2022/10/11 08:26:47;;;;;;;11.88;8.13;;;;;;;;;;5058318;28;20055;-83
2022/10/11 08:29:13;;;;;;;10.02;7.25;;;;;;;;;;5041701;28;20033;-85
2022/10/11 08:31:39;;;;;;;12.25;7.57;;;;;;;;;;5058517;28;20422;-85
2022/10/11 08:34:06;;;;;;;13.10;8.30;;;;;;;;;;5059396;28;20024;-85
2022/10/11 08:36:32;;;;;;;12.73;7.85;;;;;;;;;;5059069;28;20021;-85
2022/10/11 08:38:58;;;;;;;11.23;7.80;;;;;;;;;;5057215;28;20423;-86
2022/10/11 08:41:24;;;;;;;10.85;7.70;;;;;;;;;;5059045;28;20082;-86
2022/10/11 08:43:55;;;;;;;11.77;8.13;;;;;;;;;;5041585;28;20025;-85
2022/10/11 08:46:24;;;;;;;12.98;8.35;;;;;;;;;;5056981;28;20479;-85
2022/10/11 08:48:50;;;;;;;13.82;8.18;;;;;;;;;;5058994;28;20498;-85
2022/10/11 08:51:24;;;;;;;10.20;7.78;;;;;;;;;;5060111;28;20030;-85
2022/10/11 08:54:13;;;;;;;13.52;7.93;;;;;;;;;;5061071;28;20025;-84
2022/10/11 08:56:42;;;;;;;10.13;8.05;;;;;;;;;;5027655;28;20041;-85
2022/10/11 08:59:11;;;;;;;12.10;8.45;;;;;;;;;;5057307;28;20479;-85
2022/10/11 09:01:40;;;;;;;13.63;8.05;;;;;;;;;;5045628;28;20555;-85
2022/10/11 09:04:11;;;;;;;10.80;8.13;;;;;;;;;;5059499;28;20079;-84
2022/10/11 09:06:40;;;;;;;10.43;8.23;;;;;;;;;;5059877;28;20020;-85
2022/10/11 09:09:13;;;;;;;13.32;8.75;;;;;;;;;;5055956;28;20059;-84
2022/10/11 09:11:57;;;;;;;12.80;8.35;;;;;;;;;;5056409;28;20032;-85
2022/10/11 09:14:31;;;;;;;11.80;8.48;;;;;;;;;;5054887;28;20021;-83
2022/10/11 09:16:57;;;;;;;10.93;7.80;;;;;;;;;;5057093;28;20656;-85
2022/10/11 09:19:35;;;;;;;12.95;8.07;;;;;;;;;;5054410;28;20056;-85
2022/10/11 09:22:17;;;;;;;12.73;8.10;;;;;;;;;;5053627;28;20442;-85
2022/10/11 09:24:44;;;;;;;12.10;7.93;;;;;;;;;;5046631;28;20391;-86
2022/10/11 09:27:26;;;;;;;10.13;7.53;;;;;;;;;;5055186;28;20096;-86
2022/10/11 09:30:13;;;;;;;13.55;8.52;;;;;;;;;;5059593;28;20056;-85
2022/10/11 09:32:40;;;;;;;11.15;8.27;;;;;;;;;;5056920;28;20080;-85
2022/10/11 09:35:20;;;;;;;9.57;7.50;;;;;;;;;;5056500;28;20025;-83
2022/10/11 09:37:55;;;;;;;12.23;7.82;;;;;;;;;;5056119;28;20060;-86
2022/10/11 09:40:45;;;;;;;11.38;7.88;;;;;;;;;;5055002;28;20047;-85
2022/10/11 09:43:11;;;;;;;10.38;7.22;;;;;;;;;;5057221;28;20021;-86
2022/10/11 09:45:41;;;;;;;10.35;7.90;;;;;;;;;;5039046;28;20513;-84
2022/10/11 09:48:08;;;;;;;11.07;7.35;;;;;;;;;;5059293;28;20033;-84
2022/10/11 09:50:35;;;;;;;10.65;7.88;;;;;;;;;;5041361;28;20054;-84
2022/10/11 09:53:03;;;;;;;9.75;7.38;;;;;;;;;;5039141;28;20487;-85
2022/10/11 09:55:38;;;;;;;13.45;8.18;;;;;;;;;;5056292;28;20025;-83
2022/10/11 09:58:05;;;;;;;12.90;8.15;;;;;;;;;;5057101;28;20517;-86
2022/10/11 10:00:32;;;;;;;10.90;7.53;;;;;;;;;;5055376;28;20031;-84
2022/10/11 10:03:03;;;;;;;10.80;7.30;;;;;;;;;;5055993;28;20079;-84
2022/10/11 10:05:34;;;;;;;12.32;8.90;;;;;;;;;;5048757;28;20116;-83
2022/10/11 10:08:01;;;;;;;9.90;7.10;;;;;;;;;;5056945;28;20077;-82
2022/10/11 10:10:41;;;;;;;12.32;7.75;;;;;;;;;;5056735;28;20022;-85
2022/10/11 10:13:20;;;;;;;9.95;6.97;;;;;;;;;;5058764;28;20029;-83
2022/10/11 10:15:47;;;;;;;11.15;6.90;;;;;;;;;;5051699;28;20521;-84
2022/10/11 10:18:25;;;;;;;12.75;6.70;;;;;;;;;;5056867;28;20044;-83
2022/10/11 10:20:52;;;;;;;12.05;7.82;;;;;;;;;;5057254;28;20044;-82
2022/10/11 10:23:21;;;;;;;10.93;6.82;;;;;;;;;;5058083;28;20029;-85
2022/10/11 10:25:50;;;;;;;10.43;7.40;;;;;;;;;;5055738;28;20079;-83
2022/10/11 10:28:26;;;;;;;10.40;6.85;;;;;;;;;;5059515;28;20021;-84
2022/10/11 10:30:54;;;;;;;9.57;6.90;;;;;;;;;;5058510;28;20067;-83
2022/10/11 10:33:21;;;;;;;10.63;5.90;;;;;;;;;;5058364;28;20032;-84
2022/10/11 10:36:00;;;;;;;8.77;6.10;;;;;;;;;;5056418;28;20025;-84
2022/10/11 10:38:27;;;;;;;8.50;6.72;;;;;;;;;;5057397;28;20111;-84
2022/10/11 10:40:58;;;;;;;8.93;6.47;;;;;;;;;;5057293;28;20127;-83
2022/10/11 10:43:29;;;;;;;11.07;6.95;;;;;;;;;;5059531;28;20049;-85
2022/10/11 10:46:02;;;;;;;10.90;7.25;;;;;;;;;;5058789;28;20071;-83
2022/10/11 10:48:28;;;;;;;9.00;6.65;;;;;;;;;;5059549;28;20025;-83
2022/10/11 10:50:57;;;;;;;11.32;7.32;;;;;;;;;;5062119;28;20084;-84
2022/10/11 10:53:26;;;;;;;10.63;6.70;;;;;;;;;;5062068;28;20029;-83
2022/10/11 10:55:59;;;;;;;10.77;6.18;;;;;;;;;;5068441;28;20032;-85
2022/10/11 10:58:25;;;;;;;10.93;6.65;;;;;;;;;;5068185;28;20083;-84
2022/10/11 11:00:54;;;;;;;10.60;6.25;;;;;;;;;;5065950;28;20021;-83
2022/10/11 11:03:36;;;;;;;8.65;5.78;;;;;;;;;;5067426;28;20067;-85
2022/10/11 11:06:04;;;;;;;9.13;6.40;;;;;;;;;;5049934;28;20025;-84
2022/10/11 11:08:46;;;;;;;9.20;6.78;;;;;;;;;;5067014;28;20020;-83
2022/10/11 11:11:32;;;;;;;10.70;6.20;;;;;;;;;;5067000;28;20051;-84
2022/10/11 11:13:58;;;;;;;8.77;5.25;;;;;;;;;;5067001;28;20025;-83
2022/10/11 11:16:30;;;;;;;9.60;5.93;;;;;;;;;;5048529;28;20025;-84
2022/10/11 11:19:13;;;;;;;10.13;6.40;;;;;;;;;;5063759;28;20021;-84
2022/10/11 11:21:42;;;;;;;8.38;5.50;;;;;;;;;;5065339;28;20483;-83
2022/10/11 11:24:08;;;;;;;10.18;5.60;;;;;;;;;;5064288;28;20025;-85
2022/10/11 11:26:52;;;;;;;8.25;5.03;;;;;;;;;;5065540;28;20045;-84
2022/10/11 11:29:27;;;;;;;10.38;5.28;;;;;;;;;;5062154;28;20087;-83
2022/10/11 11:31:56;;;;;;;8.68;5.53;;;;;;;;;;5054991;28;20029;-83
2022/10/11 11:34:25;;;;;;;8.63;5.40;;;;;;;;;;5056131;28;20028;-84
2022/10/11 11:37:00;;;;;;;8.63;5.30;;;;;;;;;;5059818;28;20510;-82
2022/10/11 11:39:30;;;;;;;8.15;5.13;;;;;;;;;;5049463;28;20045;-82
2022/10/11 11:41:59;;;;;;;9.82;5.05;;;;;;;;;;5052807;28;20033;-82
2022/10/11 11:44:29;;;;;;;7.72;4.40;;;;;;;;;;5045530;28;20036;-82
2022/10/11 11:47:16;;;;;;;7.55;4.40;;;;;;;;;;5069493;28;20069;-80
2022/10/11 11:50:03;;;;;;;10.18;5.55;;;;;;;;;;5065197;28;20079;-82
2022/10/11 11:52:35;;;;;;;7.63;4.07;;;;;;;;;;5066026;28;20031;-82
2022/10/11 11:55:01;;;;;;;;;;;;;;;;;;5064797;28;20075;-83
2022/10/11 11:57:30;;;;;;;8.30;4.85;;;;;;;;;;5060426;28;19909;-82
2022/10/11 12:00:03;;;;;;;7.57;4.70;;;;;;;;;;5066613;28;20036;-82
2022/10/11 12:02:29;;;;;;;;;;;;;;;;;;5066675;28;20068;-82
2022/10/11 12:04:55;;;;;;;8.23;4.90;;;;;;;;;;5064772;28;19913;-82
2022/10/11 12:07:23;;;;;;;7.88;5.10;;;;;;;;;;5064414;28;20027;-83
2022/10/11 12:09:51;;;;;;;7.22;4.75;;;;;;;;;;5063600;28;20044;-81
2022/10/11 12:12:29;;;;;;;10.50;4.85;;;;;;;;;;5054363;28;20024;-81
2022/10/11 12:15:16;;;;;;;8.60;4.82;;;;;;;;;;5064163;28;20462;-82
2022/10/11 12:17:57;;;;;;;8.52;4.75;;;;;;;;;;5063579;28;20040;-81
2022/10/11 12:20:26;;;;;;;7.50;4.72;;;;;;;;;;5063832;28;20046;-81
2022/10/11 12:22:52;;;;;;;7.65;4.90;;;;;;;;;;5045664;28;20028;-81
2022/10/11 12:25:18;;;;;;;7.82;4.35;;;;;;;;;;5063247;28;20029;-81
2022/10/11 12:27:46;;;;;;;8.35;4.50;;;;;;;;;;5045552;28;20039;-82
2022/10/11 12:30:30;;;;;;;6.63;4.65;;;;;;;;;;5059778;28;20017;-83
2022/10/11 12:33:12;;;;;;;8.40;4.68;;;;;;;;;;5044413;28;20033;-82
2022/10/11 12:35:41;;;;;;;8.65;5.28;;;;;;;;;;5063757;28;20052;-80
2022/10/11 12:38:24;;;;;;;7.93;4.88;;;;;;;;;;5049292;28;20445;-83
2022/10/11 12:40:53;;;;;;;9.27;5.10;;;;;;;;;;5057373;28;20032;-81
2022/10/11 12:43:23;;;;;;;7.88;5.03;;;;;;;;;;5061574;28;20503;-82
2022/10/11 12:45:49;;;;;;;7.90;4.32;;;;;;;;;;5062346;28;20053;-83
2022/10/11 12:48:27;;;;;;;9.40;4.88;;;;;;;;;;5063548;28;20726;-82
2022/10/11 12:51:02;;;;;;;8.68;4.55;;;;;;;;;;5043636;28;20024;-82
2022/10/11 12:53:47;;;;;;;13.75;5.07;;;;;;;;;;5043082;28;20028;-81
2022/10/11 12:56:28;;;;;;;7.50;5.22;;;;;;;;;;5043036;28;20052;-82
2022/10/11 12:59:02;;;;;;;9.90;5.25;;;;;;;;;;5062362;28;20029;-82
2022/10/11 13:01:33;;;;;;;8.25;5.20;;;;;;;;;;5041795;28;20055;-82
2022/10/11 13:03:59;;;;;;;7.78;4.95;;;;;;;;;;5041423;28;20021;-82
2022/10/11 13:06:33;;;;;;;8.98;4.45;;;;;;;;;;5039161;28;20040;-81
2022/10/11 13:09:02;;;;;;;8.30;5.47;;;;;;;;;;5055761;28;20029;-81
2022/10/11 13:11:30;;;;;;;9.15;5.20;;;;;;;;;;5044478;28;20102;-82
2022/10/11 13:13:57;;;;;;;8.70;5.07;;;;;;;;;;5041837;28;20029;-83
2022/10/11 13:16:28;;;;;;;10.07;4.40;;;;;;;;;;5060547;28;20025;-82
2022/10/11 13:18:58;;;;;;;8.13;4.75;;;;;;;;;;5053820;28;20029;-81
2022/10/11 13:21:25;;;;;;;12.10;5.72;;;;;;;;;;5063863;28;20016;-81
2022/10/11 13:23:56;;;;;;;7.97;4.60;;;;;;;;;;5059778;28;20025;-81
2022/10/11 13:26:22;;;;;;;8.50;4.32;;;;;;;;;;5058824;28;20071;-82
2022/10/11 13:28:48;;;;;;;9.27;4.93;;;;;;;;;;5040358;28;20330;-82
2022/10/11 13:31:14;;;;;;;7.95;4.90;;;;;;;;;;5057990;28;20025;-81
2022/10/11 13:33:42;;;;;;;8.65;5.03;;;;;;;;;;5056591;28;20618;-81
2022/10/11 13:36:13;;;;;;;10.32;5.90;;;;;;;;;;5037442;28;20021;-81
2022/10/11 13:38:39;;;;;;;8.15;5.32;;;;;;;;;;5036049;28;20105;-81
2022/10/11 13:41:07;;;;;;;8.77;4.45;;;;;;;;;;5037766;28;20026;-81
2022/10/11 13:43:34;;;;;;;8.88;5.43;;;;;;;;;;5045499;28;20029;-81
2022/10/11 13:46:03;;;;;;;9.65;5.53;;;;;;;;;;5038220;28;20025;-83
2022/10/11 13:48:29;;;;;;;8.63;4.60;;;;;;;;;;5061908;28;20035;-81
2022/10/11 13:51:15;;;;;;;9.10;4.75;;;;;;;;;;5071567;28;20024;-81
2022/10/11 13:53:58;;;;;;;8.02;5.00;;;;;;;;;;5070461;28;20040;-81
2022/10/11 13:56:24;;;;;;;8.88;4.53;;;;;;;;;;5071323;28;20048;-83
2022/10/11 13:58:52;;;;;;;7.45;4.40;;;;;;;;;;5060980;28;20055;-83
2022/10/11 14:01:21;;;;;;;7.85;4.80;;;;;;;;;;5075796;28;20032;-81
2022/10/11 14:03:59;;;;;;;7.53;4.97;;;;;;;;;;5071269;28;20051;-81
2022/10/11 14:06:37;;;;;;;8.05;4.65;;;;;;;;;;5067544;28;20130;-82
2022/10/11 14:09:04;;;;;;;7.00;4.32;;;;;;;;;;5070690;28;20028;-82
2022/10/11 14:11:34;;;;;;;10.25;5.72;;;;;;;;;;5060244;28;20045;-82
2022/10/11 14:14:00;;;;;;;10.70;5.38;;;;;;;;;;5064113;28;20048;-81
2022/10/11 14:16:26;;;;;;;8.05;4.63;;;;;;;;;;5064565;28;20060;-81
2022/10/11 14:18:59;;;;;;;10.57;5.60;;;;;;;;;;5045210;28;20033;-82
2022/10/11 14:21:28;;;;;;;11.10;4.75;;;;;;;;;;5043620;28;20028;-82
2022/10/11 14:23:58;;;;;;;11.45;6.15;;;;;;;;;;5042109;28;20041;-82
2022/10/11 14:26:25;;;;;;;8.68;5.50;;;;;;;;;;5039252;28;20032;-80
2022/10/11 14:28:55;;;;;;;10.23;6.40;;;;;;;;;;5075020;28;20028;-81
2022/10/11 14:31:21;;;;;;;15.65;6.80;;;;;;;;;;5062911;28;20379;-81
2022/10/11 14:33:47;;;;;;;11.05;4.80;;;;;;;;;;5046964;28;20029;-82
2022/10/11 14:36:13;;;;;;;7.07;4.63;;;;;;;;;;5065423;28;20025;-82
2022/10/11 14:38:39;;;;;;;9.85;5.97;;;;;;;;;;5067449;28;20057;-83
2022/10/11 14:41:06;;;;;;;8.23;4.97;;;;;;;;;;5068627;28;20006;-84
2022/10/11 14:43:32;;;;;;;9.65;5.40;;;;;;;;;;5063208;28;20017;-83